createdAt,value
2022-09-24T00:04:52.611Z,12.35
2022-09-24T00:09:55.394Z,15.54
2022-09-24T00:14:58.234Z,15.67
2022-09-24T00:20:01.370Z,14.13
2022-09-24T00:25:23.405Z,13.25
2022-09-24T00:30:26.329Z,12.60
2022-09-24T00:35:32.203Z,12.09
2022-09-24T00:40:37.303Z,11.65
2022-09-24T00:45:42.614Z,11.26
2022-09-24T00:50:46.044Z,10.96
2022-09-24T00:55:54.718Z,10.73
2022-09-24T01:01:04.459Z,10.56
2022-09-24T01:06:09.447Z,10.42
2022-09-24T01:11:40.781Z,11.61
2022-09-24T01:17:00.202Z,15.07
2022-09-24T01:22:30.601Z,14.48
2022-09-24T01:28:00.354Z,13.10
2022-09-24T01:33:08.298Z,12.30
2022-09-24T01:38:21.554Z,11.74
2022-09-24T01:43:27.206Z,11.27
2022-09-24T01:48:30.564Z,10.90
2022-09-24T01:53:44.958Z,10.59
2022-09-24T01:58:49.240Z,10.31
2022-09-24T02:03:57.804Z,10.10
2022-09-24T02:09:00.829Z,9.94
2022-09-24T02:14:09.671Z,9.80
2022-09-24T02:19:17.472Z,11.06
2022-09-24T02:24:29.677Z,14.44
2022-09-24T02:29:32.503Z,14.05
2022-09-24T02:34:47.248Z,12.71
2022-09-24T02:39:50.916Z,11.92
2022-09-24T02:44:57.474Z,11.38
2022-09-24T02:50:00.672Z,10.96
2022-09-24T02:55:05.125Z,10.61
2022-09-24T03:00:08.967Z,10.29
2022-09-24T03:05:12.657Z,10.05
2022-09-24T03:10:15.509Z,9.84
2022-09-24T03:15:18.308Z,9.67
2022-09-24T03:20:21.749Z,10.79
2022-09-24T03:25:25.872Z,14.10
2022-09-24T03:30:47.025Z,13.75
2022-09-24T03:35:49.843Z,12.34
2022-09-24T03:40:53.256Z,11.61
2022-09-24T03:45:56.191Z,11.06
2022-09-24T03:51:14.138Z,10.59
2022-09-24T03:56:17.090Z,10.18
2022-09-24T04:01:22.020Z,9.89
2022-09-24T04:06:27.135Z,9.66
2022-09-24T04:11:29.941Z,9.45
2022-09-24T04:16:33.029Z,9.29
2022-09-24T04:21:36.217Z,10.43
2022-09-24T04:26:39.121Z,13.89
2022-09-24T04:31:42.033Z,14.13
2022-09-24T04:36:44.878Z,12.64
2022-09-24T04:41:48.040Z,11.80
2022-09-24T04:46:50.927Z,11.23
2022-09-24T04:51:53.709Z,10.77
2022-09-24T04:56:56.569Z,10.41
2022-09-24T05:01:59.520Z,10.11
2022-09-24T05:07:02.398Z,9.87
2022-09-24T05:12:05.937Z,9.69
2022-09-24T05:17:08.696Z,10.83
2022-09-24T05:22:11.725Z,14.14
2022-09-24T05:27:14.502Z,14.55
2022-09-24T05:32:19.965Z,13.02
2022-09-24T05:37:22.796Z,12.16
2022-09-24T05:42:25.757Z,11.57
2022-09-24T05:47:28.641Z,11.12
2022-09-24T05:52:31.529Z,10.79
2022-09-24T05:57:34.552Z,10.50
2022-09-24T06:02:37.480Z,10.31
2022-09-24T06:07:40.352Z,10.19
2022-09-24T06:12:44.051Z,11.50
2022-09-24T06:17:47.234Z,14.90
2022-09-24T06:22:50.698Z,15.63
2022-09-24T06:28:00.461Z,14.16
2022-09-24T06:33:14.039Z,13.38
2022-09-24T06:38:18.527Z,12.92
2022-09-24T06:43:21.438Z,12.62
2022-09-24T06:48:25.022Z,12.41
2022-09-24T06:53:27.993Z,12.26
2022-09-24T06:58:31.084Z,12.18
2022-09-24T07:03:34.640Z,12.14
2022-09-24T07:08:38.295Z,12.14
2022-09-24T07:13:41.170Z,12.14
2022-09-24T07:18:44.044Z,12.17
2022-09-24T07:23:47.490Z,13.53
2022-09-24T07:28:50.342Z,16.82
2022-09-24T07:33:53.603Z,16.64
2022-09-24T07:38:56.523Z,15.54
2022-09-24T07:43:59.346Z,15.02
2022-09-24T07:49:02.393Z,14.71
2022-09-24T07:54:06.450Z,14.49
2022-09-24T07:59:11.332Z,14.32
2022-09-24T08:04:14.337Z,14.20
2022-09-24T08:09:17.375Z,14.12
2022-09-24T08:14:20.498Z,14.07
2022-09-24T08:19:23.377Z,14.09
2022-09-24T08:24:26.355Z,14.12
2022-09-24T08:29:29.142Z,14.17
2022-09-24T08:34:38.416Z,14.23
2022-09-24T08:39:41.271Z,14.31
2022-09-24T08:45:04.618Z,14.38
2022-09-24T08:50:17.550Z,14.45
2022-09-24T08:55:25.920Z,14.54
2022-09-24T09:00:36.426Z,14.64
2022-09-24T09:05:49.636Z,14.76
2022-09-24T09:10:58.695Z,14.85
2022-09-24T09:16:07.116Z,14.96
2022-09-24T09:21:24.595Z,15.06
2022-09-24T09:26:28.019Z,15.17
2022-09-24T09:31:40.044Z,15.28
2022-09-24T09:37:14.048Z,15.40
2022-09-24T09:42:36.495Z,15.53
2022-09-24T09:47:51.016Z,15.66
2022-09-24T09:52:54.892Z,15.81
2022-09-24T09:58:16.092Z,15.95
2022-09-24T10:03:26.376Z,16.09
2022-09-24T10:08:30.205Z,16.22
2022-09-24T10:13:33.675Z,16.32
2022-09-24T10:18:43.542Z,16.41
2022-09-24T10:23:50.311Z,16.56
2022-09-24T10:29:12.020Z,16.67
2022-09-24T10:34:29.055Z,16.87
2022-09-24T10:39:31.972Z,17.40
2022-09-24T10:44:37.228Z,17.94
2022-09-24T10:50:01.418Z,18.30
2022-09-24T10:55:15.210Z,18.46
2022-09-24T11:00:28.611Z,18.76
2022-09-24T11:05:57.265Z,18.95
2022-09-24T11:11:09.729Z,18.95
2022-09-24T11:16:39.141Z,18.93
2022-09-24T11:22:38.927Z,18.81
2022-09-24T11:28:01.307Z,18.96
2022-09-24T11:33:26.349Z,19.15
2022-09-24T11:39:04.801Z,19.17
2022-09-24T11:44:28.722Z,19.17
2022-09-24T11:50:11.246Z,19.04
2022-09-24T11:55:22.181Z,18.83
2022-09-24T12:00:32.515Z,18.67
2022-09-24T12:05:39.624Z,18.51
2022-09-24T12:10:51.520Z,18.57
2022-09-24T12:16:03.667Z,18.73
2022-09-24T12:21:13.233Z,18.90
2022-09-24T12:26:17.854Z,19.17
2022-09-24T12:31:47.104Z,19.33
2022-09-24T12:37:11.761Z,19.41
2022-09-24T12:42:17.296Z,19.43
2022-09-24T12:47:25.912Z,19.45
2022-09-24T12:52:36.600Z,19.53
2022-09-24T12:57:42.705Z,19.66
2022-09-24T13:02:47.864Z,19.73
2022-09-24T13:08:24.834Z,19.97
2022-09-24T13:13:30.890Z,20.08
2022-09-24T13:18:36.115Z,20.00
2022-09-24T13:23:49.754Z,19.94
2022-09-24T13:29:01.622Z,19.90
2022-09-24T13:34:10.453Z,19.95
2022-09-24T13:39:34.703Z,20.07
2022-09-24T13:44:43.887Z,20.10
2022-09-24T13:49:50.378Z,20.06
2022-09-24T13:54:57.214Z,19.93
2022-09-24T14:00:16.415Z,19.83
2022-09-24T14:05:20.067Z,19.87
2022-09-24T14:10:25.295Z,19.89
2022-09-24T14:15:28.309Z,19.87
2022-09-24T14:20:35.441Z,19.83
2022-09-24T14:25:39.923Z,19.71
2022-09-24T14:30:55.328Z,19.66
2022-09-24T14:35:59.480Z,19.77
2022-09-24T14:41:25.163Z,19.73
2022-09-24T14:46:48.836Z,19.51
2022-09-24T14:51:55.303Z,19.31
2022-09-24T14:57:10.974Z,19.15
2022-09-24T15:02:19.920Z,18.95
2022-09-24T15:07:30.121Z,18.79
2022-09-24T15:12:36.624Z,18.61
2022-09-24T15:17:39.618Z,18.47
2022-09-24T15:22:42.606Z,18.34
2022-09-24T15:27:45.862Z,18.22
2022-09-24T15:32:50.175Z,18.11
2022-09-24T15:37:53.142Z,17.98
2022-09-24T15:42:56.185Z,17.90
2022-09-24T15:47:59.155Z,17.82
2022-09-24T15:53:02.593Z,17.71
2022-09-24T15:58:15.812Z,17.62
2022-09-24T16:03:30.254Z,17.53
2022-09-24T16:08:33.171Z,17.39
2022-09-24T16:13:36.266Z,17.30
2022-09-24T16:18:40.833Z,17.21
2022-09-24T16:23:43.839Z,17.12
2022-09-24T16:28:47.614Z,17.02
2022-09-24T16:33:50.542Z,16.89
2022-09-24T16:38:53.387Z,16.77
2022-09-24T16:43:57.010Z,16.65
2022-09-24T16:48:59.945Z,16.55
2022-09-24T16:54:03.081Z,16.48
2022-09-24T16:59:06.230Z,16.41
2022-09-24T17:04:09.806Z,16.33
2022-09-24T17:09:31.610Z,16.24
2022-09-24T17:14:37.624Z,16.14
2022-09-24T17:19:40.588Z,16.04
2022-09-24T17:24:43.793Z,15.94
2022-09-24T17:29:47.920Z,15.83
2022-09-24T17:34:50.896Z,15.72
2022-09-24T17:39:53.709Z,15.61
2022-09-24T17:44:56.585Z,15.51
2022-09-24T17:50:00.151Z,15.43
2022-09-24T17:55:08.485Z,15.37
2022-09-24T18:00:11.742Z,15.40
2022-09-24T18:05:14.846Z,15.77
2022-09-24T18:10:20.365Z,15.80
2022-09-24T18:15:23.168Z,15.69
2022-09-24T18:20:26.386Z,15.57
2022-09-24T18:25:29.418Z,15.44
2022-09-24T18:30:32.793Z,15.33
2022-09-24T18:35:35.665Z,15.21
2022-09-24T18:40:38.712Z,15.10
2022-09-24T18:45:41.809Z,14.97
2022-09-24T18:50:45.203Z,14.86
2022-09-24T18:55:48.091Z,14.74
2022-09-24T19:00:51.421Z,14.64
2022-09-24T19:05:56.453Z,14.56
2022-09-24T19:11:14.473Z,14.47
2022-09-24T19:16:19.619Z,14.38
2022-09-24T19:21:26.037Z,14.31
2022-09-24T19:26:32.290Z,15.37
2022-09-24T19:31:38.222Z,18.52
2022-09-24T19:36:44.928Z,18.80
2022-09-24T19:41:53.086Z,17.38
2022-09-24T19:46:56.166Z,16.59
2022-09-24T19:51:58.970Z,16.04
2022-09-24T19:57:01.870Z,15.60
2022-09-24T20:02:04.888Z,15.21
2022-09-24T20:07:08.277Z,14.88
2022-09-24T20:12:17.070Z,14.59
2022-09-24T20:17:19.902Z,14.35
2022-09-24T20:22:23.247Z,14.16
2022-09-24T20:27:44.873Z,14.00
2022-09-24T20:32:48.422Z,15.30
2022-09-24T20:37:51.458Z,18.31
2022-09-24T20:42:54.280Z,18.13
2022-09-24T20:47:57.388Z,16.76
2022-09-24T20:53:00.260Z,15.97
2022-09-24T20:58:03.305Z,15.39
2022-09-24T21:03:25.669Z,14.90
2022-09-24T21:08:37.662Z,14.47
2022-09-24T21:13:43.903Z,14.13
2022-09-24T21:18:47.802Z,13.82
2022-09-24T21:23:53.568Z,13.56
2022-09-24T21:29:01.121Z,13.33
2022-09-24T21:34:06.931Z,14.37
2022-09-24T21:39:23.194Z,17.48
2022-09-24T21:44:26.275Z,17.50
2022-09-24T21:49:29.826Z,16.08
2022-09-24T21:54:35.959Z,15.26
2022-09-24T21:59:57.373Z,14.65
2022-09-24T22:05:01.682Z,14.14
2022-09-24T22:10:05.529Z,13.75
2022-09-24T22:15:08.547Z,13.39
2022-09-24T22:20:11.409Z,13.10
2022-09-24T22:25:14.365Z,12.83
2022-09-24T22:30:17.427Z,12.60
2022-09-24T22:35:43.250Z,13.70
2022-09-24T22:40:46.566Z,17.00
2022-09-24T22:45:49.456Z,16.69
2022-09-24T22:50:52.971Z,15.32
2022-09-24T22:56:06.186Z,14.56
2022-09-24T23:01:21.699Z,13.99
2022-09-24T23:06:24.871Z,13.54
2022-09-24T23:11:33.389Z,13.17
2022-09-24T23:16:37.695Z,12.84
2022-09-24T23:21:41.670Z,12.57
2022-09-24T23:26:45.098Z,12.37
2022-09-24T23:31:48.313Z,13.38
2022-09-24T23:36:51.104Z,16.58
2022-09-24T23:41:54.061Z,16.67
2022-09-24T23:46:57.665Z,15.17
2022-09-24T23:52:00.677Z,14.30
2022-09-24T23:57:06.959Z,13.71
